Portal de Información Aeronáutica de la República Argentina

NOTAM y MADHEL


BAiresFlightDescarga del MADHEL 2015

Manual de Aeródromos y Helipuertos

Plan de vuelo

Necesitás hacer el Plan de Vuelo?
Podés hacerlo online, y llevarlo impreso.

Instrucciones para llenar el Plan de Vuelo

 

Consulta de NOTAM

Los NOTAM, son generados por ANAC, siendo este, el único organismo oficial autorizado a publicarlos.
Por su parte, BAiresFlight, extiende el uso de esta herramienta de consulta, accediendo forma directa a los servidores de ANAC para brindar esta información.

En caso de no estar disponible, o que la publicación solicitada pudiera estar obsoleta, es muy recomendable consultar en forma directa con puntos de origen y destino del vuelo.

Click >> AQUI << , y seleccionar el destino.

NOTAM Internacional (OACI SOLAMENTE) >> AQUI <<

 

Cualquier duda, podrá enviar una mail a info@BAiresFlight.com.ar

Cordialmente,
Administración BAiresFlight

Available data for SAEZ from the past hour
BUENOS AIRES/EZE
Metar
SAEZ 221000Z 34008KT CAVOK 28/20 Q1008 NOSIG

10:00 UTC

Wind: 340° 8kt

Visibility:

Sky:

Temp: 28 deg C / 82.4 deg F

Dewpoint: 20 deg C / 68 deg F

Pressure: 1008 hPa

TAF
TAF SAEZ 220500Z 2206/2306 06005KT CAVOK TX30/2218Z TN20/2306Z BECMG 2207/2209 12010KT 9999 SCT010 PROB30 TEMPO 2208/2211 14005KT 5000 BR SCT008 BECMG 2212/2214 9999 SCT030 FEW045TCU BECMG 2222/2300 18015G25KT 5000 TSRA BKN015 FEW045CB OVC050